createdAt,value
2023-12-09T00:00:25.028Z,8.60
2023-12-09T00:02:52.712Z,8.80
2023-12-09T00:05:20.333Z,8.97
2023-12-09T00:07:47.866Z,8.10
2023-12-09T00:10:15.485Z,8.37
2023-12-09T00:12:43.010Z,8.67
2023-12-09T00:15:11.100Z,7.87
2023-12-09T00:17:38.703Z,8.87
2023-12-09T00:20:06.753Z,9.03
2023-12-09T00:22:34.391Z,7.73
2023-12-09T00:25:02.042Z,8.40
2023-12-09T00:27:29.551Z,8.33
2023-12-09T00:29:57.249Z,7.93
2023-12-09T00:32:25.031Z,8.73
2023-12-09T00:34:52.776Z,8.67
2023-12-09T00:37:20.442Z,8.43
2023-12-09T00:39:47.952Z,8.37
2023-12-09T00:42:15.605Z,8.20
2023-12-09T00:44:43.223Z,8.90
2023-12-09T00:47:11.102Z,8.50
2023-12-09T00:49:38.774Z,8.77
2023-12-09T00:52:06.393Z,7.93
2023-12-09T00:54:34.064Z,8.37
2023-12-09T00:57:01.657Z,8.50
2023-12-09T00:59:29.244Z,8.50
2023-12-09T01:01:56.781Z,7.90
2023-12-09T01:04:24.387Z,8.20
2023-12-09T01:06:52.376Z,8.13
2023-12-09T01:09:19.939Z,8.27
2023-12-09T01:11:47.743Z,7.73
2023-12-09T01:14:15.349Z,8.40
2023-12-09T01:16:42.871Z,8.10
2023-12-09T01:19:10.567Z,8.17
2023-12-09T01:21:38.484Z,8.13
2023-12-09T01:24:06.496Z,8.50
2023-12-09T01:26:34.425Z,8.03
2023-12-09T01:29:04.317Z,7.73
2023-12-09T01:31:32.640Z,8.40
2023-12-09T01:34:00.324Z,8.37
2023-12-09T01:36:28.052Z,7.80
2023-12-09T01:38:55.760Z,7.97
2023-12-09T01:41:23.386Z,8.47
2023-12-09T01:43:50.913Z,8.07
2023-12-09T01:46:19.485Z,7.90
2023-12-09T01:48:47.350Z,8.20
2023-12-09T01:51:15.960Z,7.50
2023-12-09T01:53:44.303Z,7.80
2023-12-09T01:56:12.715Z,8.10
2023-12-09T01:58:40.397Z,8.37
2023-12-09T02:01:08.444Z,7.00
2023-12-09T02:03:36.417Z,7.97
2023-12-09T02:06:04.054Z,8.03
2023-12-09T02:08:31.745Z,7.97
2023-12-09T02:11:18.580Z,8.47
2023-12-09T02:13:57.180Z,8.10
2023-12-09T02:16:29.559Z,8.47
2023-12-09T02:18:59.087Z,8.30
2023-12-09T02:21:26.659Z,8.60
2023-12-09T02:23:54.329Z,8.77
2023-12-09T02:26:25.311Z,8.07
2023-12-09T02:29:01.498Z,7.77
2023-12-09T02:31:32.496Z,8.20
2023-12-09T02:34:02.855Z,7.77
2023-12-09T02:36:31.732Z,8.10
2023-12-09T02:38:59.978Z,7.70
2023-12-09T02:41:28.446Z,8.60
2023-12-09T02:43:57.156Z,7.67
2023-12-09T02:46:24.860Z,7.93
2023-12-09T02:48:52.563Z,7.67
2023-12-09T02:51:20.269Z,8.70
2023-12-09T02:53:47.931Z,7.60
2023-12-09T02:56:15.561Z,8.57
2023-12-09T02:58:43.108Z,7.67
2023-12-09T03:01:10.738Z,7.83
2023-12-09T03:03:38.331Z,8.43
2023-12-09T03:06:06.605Z,8.63
2023-12-09T03:08:34.085Z,7.53
2023-12-09T03:11:01.629Z,7.77
2023-12-09T03:13:29.236Z,7.57
2023-12-09T03:15:56.801Z,8.73
2023-12-09T03:18:24.461Z,7.80
2023-12-09T03:20:52.056Z,8.23
2023-12-09T03:23:19.608Z,7.97
2023-12-09T03:25:47.088Z,8.20
2023-12-09T03:28:14.648Z,8.50
2023-12-09T03:30:42.305Z,7.87
2023-12-09T03:33:10.055Z,8.57
2023-12-09T03:35:37.682Z,8.27
2023-12-09T03:38:05.450Z,7.97
2023-12-09T03:40:33.072Z,8.30
2023-12-09T03:43:00.709Z,8.53
2023-12-09T03:45:28.521Z,8.33
2023-12-09T03:47:56.459Z,8.43
2023-12-09T03:50:24.035Z,7.73
2023-12-09T03:52:51.632Z,8.30
2023-12-09T03:55:19.179Z,7.77
2023-12-09T03:57:46.823Z,7.43
2023-12-09T04:00:14.690Z,7.50
2023-12-09T04:02:42.242Z,7.73
2023-12-09T04:05:11.347Z,7.10
2023-12-09T04:07:38.923Z,7.43
2023-12-09T04:10:06.801Z,8.07
2023-12-09T04:12:34.526Z,7.87
2023-12-09T04:15:02.616Z,7.93
2023-12-09T04:17:30.428Z,7.97
2023-12-09T04:19:58.121Z,7.50
2023-12-09T04:22:26.769Z,7.57
2023-12-09T04:24:54.702Z,7.17
2023-12-09T04:27:22.366Z,8.07
2023-12-09T04:29:50.321Z,7.77
2023-12-09T04:32:17.789Z,8.30
2023-12-09T04:34:45.302Z,7.43
2023-12-09T04:37:12.863Z,7.37
2023-12-09T04:39:40.555Z,7.83
2023-12-09T04:42:08.080Z,7.47
2023-12-09T04:44:35.677Z,8.10
2023-12-09T04:47:06.185Z,7.73
2023-12-09T04:49:35.022Z,7.00
2023-12-09T04:52:02.794Z,7.67
2023-12-09T04:54:30.324Z,7.57
2023-12-09T04:56:58.003Z,8.17
2023-12-09T04:59:26.268Z,8.97
2023-12-09T05:01:53.898Z,8.37
2023-12-09T05:04:21.516Z,7.13
2023-12-09T05:06:49.353Z,7.33
2023-12-09T05:09:17.184Z,7.13
2023-12-09T05:11:44.710Z,7.30
2023-12-09T05:14:12.316Z,7.77
2023-12-09T05:16:39.814Z,7.73
2023-12-09T05:19:08.149Z,7.43
2023-12-09T05:21:36.741Z,7.00
2023-12-09T05:24:05.768Z,6.93
2023-12-09T05:26:34.818Z,8.00
2023-12-09T05:29:02.687Z,7.93
2023-12-09T05:31:30.332Z,8.00
2023-12-09T05:33:58.471Z,7.97
2023-12-09T05:36:26.107Z,7.57
2023-12-09T05:38:53.732Z,8.07
2023-12-09T05:41:21.272Z,7.67
2023-12-09T05:43:48.844Z,7.27
2023-12-09T05:46:20.413Z,7.47
2023-12-09T05:48:49.102Z,7.93
2023-12-09T05:51:17.091Z,7.87
2023-12-09T05:53:45.009Z,6.83
2023-12-09T05:56:16.188Z,7.27
2023-12-09T05:58:44.777Z,7.20
2023-12-09T06:01:13.017Z,6.97
2023-12-09T06:03:40.579Z,6.83
2023-12-09T06:06:09.481Z,7.27
2023-12-09T06:08:37.158Z,8.37
2023-12-09T06:11:04.856Z,7.87
2023-12-09T06:13:33.353Z,8.13
2023-12-09T06:16:00.992Z,7.50
2023-12-09T06:18:28.573Z,7.73
2023-12-09T06:20:56.203Z,8.10
2023-12-09T06:23:23.738Z,7.73
2023-12-09T06:25:51.577Z,8.50
2023-12-09T06:28:19.161Z,7.53
2023-12-09T06:30:46.844Z,8.03
2023-12-09T06:33:14.473Z,6.77
2023-12-09T06:35:42.245Z,7.43
2023-12-09T06:38:09.842Z,7.37
2023-12-09T06:40:37.396Z,7.73
2023-12-09T06:43:05.010Z,9.33
2023-12-09T06:45:32.790Z,7.70
2023-12-09T06:48:00.565Z,8.17
2023-12-09T06:50:28.265Z,8.23
2023-12-09T06:52:56.083Z,9.20
2023-12-09T06:55:23.641Z,9.10
2023-12-09T06:57:51.125Z,8.53
2023-12-09T07:00:18.987Z,8.50
2023-12-09T07:02:56.432Z,8.77
2023-12-09T07:05:27.960Z,7.97
2023-12-09T07:07:55.589Z,9.07
2023-12-09T07:10:23.258Z,8.77
2023-12-09T07:12:50.957Z,8.93
2023-12-09T07:15:18.632Z,8.57
2023-12-09T07:17:46.284Z,9.53
2023-12-09T07:20:14.056Z,8.97
2023-12-09T07:22:41.577Z,8.13
2023-12-09T07:25:09.132Z,8.93
2023-12-09T07:27:36.867Z,9.03
2023-12-09T07:30:04.999Z,9.13
2023-12-09T07:32:32.891Z,10.03
2023-12-09T07:35:00.753Z,11.17
2023-12-09T07:37:28.666Z,10.43
2023-12-09T07:39:56.279Z,10.33
2023-12-09T07:42:23.981Z,9.20
2023-12-09T07:44:51.565Z,9.23
2023-12-09T07:47:19.106Z,8.73
2023-12-09T07:49:46.667Z,9.07
2023-12-09T07:52:14.346Z,9.47
2023-12-09T07:54:41.856Z,9.03
2023-12-09T07:57:09.513Z,9.53
2023-12-09T07:59:38.489Z,8.70
2023-12-09T08:02:06.110Z,8.77
2023-12-09T08:04:33.752Z,8.90
2023-12-09T08:07:01.356Z,9.13
2023-12-09T08:09:28.864Z,8.90
2023-12-09T08:11:57.245Z,9.03
2023-12-09T08:14:24.987Z,9.90
2023-12-09T08:16:52.653Z,9.53
2023-12-09T08:19:20.291Z,8.80
2023-12-09T08:21:47.873Z,9.63
2023-12-09T08:24:15.595Z,8.33
2023-12-09T08:26:43.463Z,9.70
2023-12-09T08:29:13.101Z,9.47
2023-12-09T08:31:40.647Z,10.00
2023-12-09T08:34:08.298Z,9.27
2023-12-09T08:36:36.171Z,9.53
2023-12-09T08:39:03.803Z,7.73
2023-12-09T08:41:31.417Z,9.17
2023-12-09T08:43:59.143Z,9.23
2023-12-09T08:46:26.706Z,9.63
2023-12-09T08:48:54.399Z,9.33
2023-12-09T08:51:22.017Z,8.30
2023-12-09T08:53:49.583Z,10.07
2023-12-09T08:56:17.246Z,9.63
2023-12-09T08:58:44.933Z,9.00
2023-12-09T09:01:13.603Z,9.10
2023-12-09T09:03:41.248Z,9.57
2023-12-09T09:06:08.998Z,8.60
2023-12-09T09:08:36.620Z,8.50
2023-12-09T09:11:05.147Z,9.60
2023-12-09T09:13:32.680Z,8.77
2023-12-09T09:16:00.319Z,10.00
2023-12-09T09:18:28.042Z,9.37
2023-12-09T09:20:55.725Z,9.23
2023-12-09T09:23:23.288Z,8.87
2023-12-09T09:25:50.865Z,9.70
2023-12-09T09:28:18.589Z,9.47
2023-12-09T09:30:46.249Z,8.53
2023-12-09T09:33:13.974Z,8.30
2023-12-09T09:35:41.788Z,9.63
2023-12-09T09:38:09.406Z,8.93
2023-12-09T09:40:37.031Z,9.60
2023-12-09T09:43:10.239Z,10.57
2023-12-09T09:45:38.124Z,11.27
2023-12-09T09:48:07.524Z,11.40
2023-12-09T09:50:45.724Z,9.40
2023-12-09T09:53:22.187Z,9.83
2023-12-09T09:55:50.267Z,9.20
2023-12-09T09:58:18.240Z,9.97
2023-12-09T10:00:46.101Z,8.67
2023-12-09T10:03:13.777Z,9.63
2023-12-09T10:05:41.403Z,9.07
2023-12-09T10:08:08.985Z,8.43
2023-12-09T10:10:36.943Z,8.60
2023-12-09T10:13:04.523Z,9.03
2023-12-09T10:15:33.672Z,8.93
2023-12-09T10:18:08.019Z,9.67
2023-12-09T10:20:36.735Z,9.70
2023-12-09T10:23:04.673Z,8.80
2023-12-09T10:25:32.293Z,9.10
2023-12-09T10:27:59.935Z,9.27
2023-12-09T10:30:27.549Z,9.77
2023-12-09T10:32:55.310Z,9.97
2023-12-09T10:35:23.105Z,9.80
2023-12-09T10:37:51.308Z,13.20
2023-12-09T10:40:22.299Z,10.20
2023-12-09T10:42:51.907Z,9.30
2023-12-09T10:45:19.475Z,9.53
2023-12-09T10:47:47.267Z,9.77
2023-12-09T10:50:15.271Z,9.03
2023-12-09T10:52:42.833Z,9.23
2023-12-09T10:55:10.489Z,9.50
2023-12-09T10:57:38.128Z,9.13
2023-12-09T11:00:11.958Z,9.93
2023-12-09T11:02:41.486Z,10.10
2023-12-09T11:05:11.147Z,9.23
2023-12-09T11:07:39.279Z,9.93
2023-12-09T11:10:08.077Z,9.97
2023-12-09T11:12:37.375Z,10.97
2023-12-09T11:15:19.136Z,9.97
2023-12-09T11:17:52.199Z,12.03
2023-12-09T11:20:22.401Z,9.30
2023-12-09T11:22:50.254Z,9.03
2023-12-09T11:25:20.658Z,8.33
2023-12-09T11:27:52.835Z,9.47
2023-12-09T11:30:45.289Z,9.77
2023-12-09T11:33:13.099Z,8.67
2023-12-09T11:35:42.285Z,9.63
2023-12-09T11:38:10.708Z,9.40
2023-12-09T11:40:38.296Z,9.23
2023-12-09T11:43:07.792Z,9.33
2023-12-09T11:45:36.826Z,9.23
2023-12-09T11:48:05.536Z,8.30
2023-12-09T11:50:33.262Z,9.40
2023-12-09T11:53:01.086Z,8.93
2023-12-09T11:55:29.014Z,8.93
2023-12-09T11:57:56.652Z,12.33
2023-12-09T12:00:24.445Z,17.53
2023-12-09T12:02:52.050Z,10.60
2023-12-09T12:05:19.840Z,9.37
2023-12-09T12:07:47.507Z,9.67
2023-12-09T12:10:16.261Z,9.20
2023-12-09T12:12:45.357Z,9.23
2023-12-09T12:15:13.681Z,8.87
2023-12-09T12:17:42.776Z,10.00
2023-12-09T12:20:12.319Z,8.90
2023-12-09T12:22:43.344Z,8.53
2023-12-09T12:25:11.575Z,7.97
2023-12-09T12:27:41.922Z,9.27
2023-12-09T12:30:09.886Z,8.47
2023-12-09T12:32:39.315Z,9.43
2023-12-09T12:35:07.568Z,9.13
2023-12-09T12:37:35.246Z,7.93
2023-12-09T12:40:02.983Z,8.87
2023-12-09T12:42:32.197Z,8.43
2023-12-09T12:45:00.291Z,7.90
2023-12-09T12:47:28.071Z,8.37
2023-12-09T12:49:55.688Z,7.63
2023-12-09T12:52:23.429Z,6.07
2023-12-09T12:54:50.973Z,8.83
2023-12-09T12:57:18.677Z,7.73
2023-12-09T12:59:46.270Z,11.90
2023-12-09T13:02:13.843Z,9.30
2023-12-09T13:04:41.458Z,9.53
2023-12-09T13:07:09.777Z,10.27
2023-12-09T13:09:37.412Z,8.70
2023-12-09T13:12:05.207Z,7.40
2023-12-09T13:14:33.610Z,7.40
2023-12-09T13:17:01.788Z,7.13
2023-12-09T13:19:29.492Z,7.63
2023-12-09T13:21:57.261Z,6.27
2023-12-09T13:24:24.912Z,8.50
2023-12-09T13:26:52.537Z,8.17
2023-12-09T13:29:20.195Z,7.40
2023-12-09T13:31:47.741Z,7.50
2023-12-09T13:34:15.475Z,8.00
2023-12-09T13:36:45.490Z,7.13
2023-12-09T13:39:15.454Z,6.73
2023-12-09T13:41:43.510Z,7.50
2023-12-09T13:44:11.139Z,8.97
2023-12-09T13:46:41.234Z,7.33
2023-12-09T13:49:09.004Z,7.20
2023-12-09T13:51:36.730Z,8.10
2023-12-09T13:54:04.665Z,6.73
2023-12-09T13:56:32.250Z,7.30
2023-12-09T13:58:59.859Z,7.60
2023-12-09T14:01:27.497Z,5.37
2023-12-09T14:03:55.193Z,7.13
2023-12-09T14:06:22.977Z,5.93
2023-12-09T14:08:50.635Z,7.10
2023-12-09T14:11:19.683Z,7.43
2023-12-09T14:13:47.242Z,5.13
2023-12-09T14:16:14.812Z,6.07
2023-12-09T14:18:42.512Z,8.10
2023-12-09T14:21:10.103Z,7.70
2023-12-09T14:23:37.893Z,7.43
2023-12-09T14:26:05.576Z,7.40
2023-12-09T14:28:33.212Z,7.70
2023-12-09T14:31:00.829Z,7.63
2023-12-09T14:33:28.583Z,6.93
2023-12-09T14:35:56.311Z,6.97
2023-12-09T14:38:23.928Z,6.83
2023-12-09T14:40:51.490Z,6.57
2023-12-09T14:43:19.168Z,6.90
2023-12-09T14:45:46.837Z,6.57
2023-12-09T14:48:15.362Z,6.90
2023-12-09T14:50:43.165Z,6.70
2023-12-09T14:53:14.037Z,6.73
2023-12-09T14:55:42.248Z,6.40
2023-12-09T14:58:10.118Z,6.57
2023-12-09T15:00:38.180Z,7.00
2023-12-09T15:03:06.097Z,6.30
2023-12-09T15:05:33.817Z,6.60
2023-12-09T15:08:04.096Z,6.30
2023-12-09T15:10:32.020Z,6.47
2023-12-09T15:13:01.105Z,6.37
2023-12-09T15:15:28.709Z,6.83
2023-12-09T15:17:56.946Z,6.00
2023-12-09T15:20:24.708Z,5.67
2023-12-09T15:22:52.353Z,5.87
2023-12-09T15:25:19.929Z,6.20
2023-12-09T15:27:48.113Z,6.37
2023-12-09T15:30:16.266Z,28.13
2023-12-09T15:32:45.628Z,15.27
2023-12-09T15:35:13.528Z,8.53
2023-12-09T15:37:41.255Z,6.23
2023-12-09T15:40:12.508Z,7.40
2023-12-09T15:42:40.180Z,7.27
2023-12-09T15:45:08.145Z,7.17
2023-12-09T15:47:35.912Z,6.80
2023-12-09T15:50:04.585Z,7.47
2023-12-09T15:52:32.251Z,7.27
2023-12-09T15:55:02.794Z,6.80
2023-12-09T15:57:31.130Z,5.33
2023-12-09T15:59:58.909Z,6.33
2023-12-09T16:02:28.418Z,5.73
2023-12-09T16:04:56.256Z,5.33
2023-12-09T16:07:24.438Z,6.20
2023-12-09T16:09:55.162Z,6.57
2023-12-09T16:12:26.095Z,5.20
2023-12-09T16:14:55.289Z,5.53
2023-12-09T16:17:23.110Z,5.20
2023-12-09T16:19:50.991Z,4.73
2023-12-09T16:22:18.829Z,5.53
2023-12-09T16:24:47.369Z,5.27
2023-12-09T16:27:16.070Z,4.67
2023-12-09T16:29:44.506Z,4.90
2023-12-09T16:32:12.302Z,4.90
2023-12-09T16:34:40.092Z,4.90
2023-12-09T16:37:07.816Z,4.63
2023-12-09T16:39:35.487Z,5.03
2023-12-09T16:42:03.833Z,4.53
2023-12-09T16:44:31.519Z,5.10
2023-12-09T16:46:59.162Z,4.50
2023-12-09T16:49:27.198Z,4.70
2023-12-09T16:51:54.892Z,4.27
2023-12-09T16:54:22.972Z,4.27
2023-12-09T16:56:50.733Z,4.70
2023-12-09T16:59:19.340Z,4.50
2023-12-09T17:01:48.255Z,4.67
2023-12-09T17:04:16.476Z,4.13
2023-12-09T17:06:44.517Z,4.30
2023-12-09T17:09:12.227Z,8.63
2023-12-09T17:11:39.933Z,9.23
2023-12-09T17:14:07.592Z,6.47
2023-12-09T17:16:35.234Z,5.57
2023-12-09T17:19:03.071Z,4.40
2023-12-09T17:21:31.007Z,5.33
2023-12-09T17:23:58.639Z,4.83
2023-12-09T17:26:26.299Z,4.50
2023-12-09T17:28:53.861Z,4.10
2023-12-09T17:31:21.509Z,4.10
2023-12-09T17:33:49.231Z,3.97
2023-12-09T17:36:17.307Z,3.83
2023-12-09T17:38:45.011Z,4.50
2023-12-09T17:41:12.573Z,3.37
2023-12-09T17:43:40.262Z,4.50
2023-12-09T17:46:07.858Z,4.27
2023-12-09T17:48:36.429Z,4.20
2023-12-09T17:51:04.197Z,3.90
2023-12-09T17:53:31.824Z,4.53
2023-12-09T17:55:59.648Z,4.60
2023-12-09T17:58:27.400Z,4.20
2023-12-09T18:00:55.301Z,4.70
2023-12-09T18:03:23.224Z,4.40
2023-12-09T18:05:53.953Z,4.40
2023-12-09T18:08:21.809Z,4.30
2023-12-09T18:10:49.475Z,4.20
2023-12-09T18:13:17.109Z,4.60
2023-12-09T18:15:45.856Z,4.23
2023-12-09T18:18:13.970Z,4.27
2023-12-09T18:20:41.695Z,4.03
2023-12-09T18:23:09.306Z,4.27
2023-12-09T18:25:36.954Z,4.47
2023-12-09T18:28:04.830Z,4.40
2023-12-09T18:30:32.970Z,3.37
2023-12-09T18:33:01.027Z,3.00
2023-12-09T18:35:28.757Z,2.40
2023-12-09T18:37:56.470Z,3.33
2023-12-09T18:40:24.430Z,3.20
2023-12-09T18:42:52.584Z,2.40
2023-12-09T18:45:20.432Z,3.40
2023-12-09T18:47:48.787Z,3.00
2023-12-09T18:50:16.576Z,2.97
2023-12-09T18:52:44.150Z,3.00
2023-12-09T18:55:11.786Z,3.00
2023-12-09T18:57:41.011Z,2.60
2023-12-09T19:00:09.128Z,2.60
2023-12-09T19:02:36.837Z,2.83
2023-12-09T19:05:04.605Z,3.40
2023-12-09T19:07:32.375Z,3.17
2023-12-09T19:10:04.873Z,4.43
2023-12-09T19:12:33.758Z,3.63
2023-12-09T19:15:01.402Z,2.80
2023-12-09T19:17:29.615Z,3.07
2023-12-09T19:19:57.282Z,3.07
2023-12-09T19:22:25.131Z,3.37
2023-12-09T19:24:52.843Z,3.10
2023-12-09T19:27:20.533Z,3.23
2023-12-09T19:29:48.112Z,3.07
2023-12-09T19:32:16.454Z,2.73
2023-12-09T19:34:44.213Z,2.80
2023-12-09T19:37:12.103Z,2.90
2023-12-09T19:39:39.693Z,3.20
2023-12-09T19:42:07.356Z,2.73
2023-12-09T19:44:35.102Z,2.97
2023-12-09T19:47:02.663Z,2.97
2023-12-09T19:49:32.091Z,3.33
2023-12-09T19:51:59.839Z,3.70
2023-12-09T19:54:27.478Z,3.90
2023-12-09T19:56:55.304Z,3.67
2023-12-09T19:59:23.478Z,3.70
2023-12-09T20:01:51.117Z,4.20
2023-12-09T20:04:19.054Z,3.90
2023-12-09T20:06:47.851Z,4.07
2023-12-09T20:09:16.684Z,3.93
2023-12-09T20:11:44.253Z,3.70
2023-12-09T20:14:12.949Z,3.90
2023-12-09T20:16:40.506Z,3.50
2023-12-09T20:19:08.893Z,3.37
2023-12-09T20:21:36.965Z,4.00
2023-12-09T20:24:04.893Z,2.93
2023-12-09T20:26:33.102Z,1.97
2023-12-09T20:29:00.718Z,3.10
2023-12-09T20:31:28.340Z,3.07
2023-12-09T20:33:56.085Z,3.77
2023-12-09T20:36:23.851Z,3.17
2023-12-09T20:38:51.533Z,3.80
2023-12-09T20:41:19.078Z,2.93
2023-12-09T20:43:47.457Z,3.97
2023-12-09T20:46:15.995Z,3.70
2023-12-09T20:48:43.562Z,3.87
2023-12-09T20:51:11.157Z,3.13
2023-12-09T20:53:39.687Z,3.10
2023-12-09T20:56:07.951Z,3.57
2023-12-09T20:58:35.562Z,3.17
2023-12-09T21:01:03.231Z,1.67
2023-12-09T21:03:31.348Z,3.27
2023-12-09T21:05:59.153Z,2.60
2023-12-09T21:08:26.791Z,3.30
2023-12-09T21:10:54.384Z,2.90
2023-12-09T21:13:22.566Z,2.60
2023-12-09T21:15:50.243Z,3.50
2023-12-09T21:18:18.114Z,3.37
2023-12-09T21:20:46.074Z,1.70
2023-12-09T21:23:14.539Z,3.10
2023-12-09T21:25:42.192Z,2.43
2023-12-09T21:28:11.810Z,3.23
2023-12-09T21:30:39.962Z,2.40
2023-12-09T21:33:07.916Z,3.00
2023-12-09T21:35:35.550Z,3.13
2023-12-09T21:38:04.013Z,2.73
2023-12-09T21:40:31.657Z,3.00
2023-12-09T21:42:59.329Z,2.90
2023-12-09T21:45:27.110Z,2.60
2023-12-09T21:47:55.704Z,2.70
2023-12-09T21:50:27.402Z,2.50
2023-12-09T21:52:55.230Z,2.50
2023-12-09T21:55:23.244Z,2.67
2023-12-09T21:57:51.036Z,2.90
2023-12-09T22:00:19.121Z,2.50
2023-12-09T22:02:46.934Z,2.43
2023-12-09T22:05:14.587Z,2.43
2023-12-09T22:07:42.334Z,2.63
2023-12-09T22:10:10.110Z,2.10
2023-12-09T22:12:40.327Z,2.50
2023-12-09T22:15:08.911Z,2.40
2023-12-09T22:17:36.731Z,2.33
2023-12-09T22:20:04.466Z,2.67
2023-12-09T22:22:38.237Z,1.90
2023-12-09T22:25:16.459Z,2.07
2023-12-09T22:27:44.141Z,2.67
2023-12-09T22:30:11.974Z,2.17
2023-12-09T22:32:39.575Z,2.37
2023-12-09T22:35:07.221Z,1.97
2023-12-09T22:37:34.795Z,2.10
2023-12-09T22:40:02.587Z,2.43
2023-12-09T22:42:30.503Z,2.63
2023-12-09T22:44:58.226Z,1.63
2023-12-09T22:47:25.914Z,1.93
2023-12-09T22:49:54.047Z,1.80
2023-12-09T22:52:21.772Z,1.80
2023-12-09T22:54:49.520Z,2.20
2023-12-09T22:57:19.461Z,1.63
2023-12-09T22:59:47.171Z,1.80
2023-12-09T23:02:15.330Z,2.00
2023-12-09T23:04:43.008Z,2.10
2023-12-09T23:07:10.703Z,1.93
2023-12-09T23:09:38.389Z,2.00
2023-12-09T23:12:06.438Z,1.80
2023-12-09T23:14:34.073Z,1.70
2023-12-09T23:17:01.641Z,1.70
2023-12-09T23:19:30.370Z,1.60
2023-12-09T23:21:58.053Z,1.50
2023-12-09T23:24:26.508Z,1.60
2023-12-09T23:26:55.304Z,1.70
2023-12-09T23:29:22.833Z,1.30
2023-12-09T23:31:50.371Z,1.47
2023-12-09T23:34:19.859Z,1.50
2023-12-09T23:36:49.905Z,1.30
2023-12-09T23:39:17.600Z,1.50
2023-12-09T23:41:46.159Z,1.60
2023-12-09T23:44:13.702Z,1.30
2023-12-09T23:46:41.280Z,1.47
2023-12-09T23:49:08.869Z,1.20
2023-12-09T23:51:36.853Z,1.23
2023-12-09T23:54:05.129Z,1.30
2023-12-09T23:56:32.788Z,1.20
2023-12-09T23:59:00.463Z,1.30
